Home > Products > Valid Products > MTR

000
SAUS41 KOKX 091255
MTRMTP
METAR KMTP 091254Z AUTO 04005KT M03/M04 A2971 RMK AO1 SLP059
T10281044





000
SAUS41 KOKX 091255
MTRMTP
METAR KMTP 091254Z AUTO 04005KT M03/M04 A2971 RMK AO1 SLP059
T10281044





000
SAUS41 KOKX 091253
MTRNYC
METAR KNYC 091251Z VRB03KT 10SM OVC012 M02/M06 A2970 RMK AO2 SLP050
T10221056 $





000
SAUS41 KOKX 091155
MTRMTP
METAR KMTP 091154Z AUTO 06006KT M03/M06 A2972 RMK AO1 SLP062 70026
T10331056 11033 21039 55006





000
SAUS41 KOKX 091155
MTRMTP
METAR KMTP 091154Z AUTO 06006KT M03/M06 A2972 RMK AO1 SLP062 70026
T10331056 11033 21039 55006





000
SAUS41 KOKX 091153
MTRNYC
METAR KNYC 091151Z VRB06KT 10SM OVC011 M02/M06 A2971 RMK AO2 SLP053
70005 T10221061 11022 21028 55001 $





000
SAUS41 KOKX 091153
MTRNYC
METAR KNYC 091151Z VRB06KT 10SM OVC011 M02/M06 A2971 RMK AO2 SLP053
70005 T10221061 11022 21028 55001 $





000
SAUS41 KOKX 091055
MTRMTP
METAR KMTP 091054Z AUTO 04006KT M04/M06 A2970 RMK AO1 SLP056
T10391061





000
SAUS41 KOKX 091052
MTRNYC
METAR KNYC 091051Z 05005KT 10SM OVC012 M03/M06 A2967 RMK AO2 SLP041
T10281061 $





000
SAUS41 KOKX 090955
MTRMTP
METAR KMTP 090954Z AUTO 02009KT M04/M07 A2968 RMK AO1 PRESFR SLP051
T10391067





000
SAUS41 KOKX 090955
MTRMTP
METAR KMTP 090954Z AUTO 02009KT M04/M07 A2968 RMK AO1 PRESFR SLP051
T10391067





000
SAUS41 KOKX 090952
MTRNYC
METAR KNYC 090951Z 05007KT 010V070 10SM OVC011 M03/M06 A2967 RMK AO2
SLP040 T10281061 $





000
SAUS41 KOKX 090855
MTRMTP
METAR KMTP 090854Z AUTO 02006KT M03/M07 A2973 RMK AO1 SLP068
T10331067 56012





000
SAUS41 KOKX 090852
MTRNYC
METAR KNYC 090851Z VRB04KT 5SM HZ OVC012 M02/M06 A2971 RMK AO2
SLP054 T10221061 58015 $





000
SAUS41 KOKX 090755
MTRMTP
METAR KMTP 090754Z AUTO 02006KT M03/M07 A2973 RMK AO1 SLP068
T10331067





000
SAUS41 KOKX 090752
MTRNYC
METAR KNYC 090751Z 12006KT 7SM OVC012 M02/M06 A2974 RMK AO2 SLP062
T10221056 $





000
SAUS41 KOKX 090655
MTRMTP
METAR KMTP 090654Z AUTO 03006KT M04/M07 A2976 RMK AO1 SLP078
T10391072





000
SAUS41 KOKX 090652
MTRNYC
METAR KNYC 090651Z 06007KT 10SM OVC014 M02/M06 A2975 RMK AO2 SLP066
T10221061 $





000
SAUS41 KOKX 090652
MTRNYC
METAR KNYC 090651Z 06007KT 10SM OVC014 M02/M06 A2975 RMK AO2 SLP066
T10221061 $





000
SAUS41 KOKX 090555
MTRMTP
METAR KMTP 090554Z AUTO 02009KT M04/M07 A2977 RMK AO1 SLP080
T10391072 11033 21039 58006





000
SAUS41 KOKX 090552
MTRNYC
METAR KNYC 090551Z 07008KT 040V100 10SM OVC011 M02/M06 A2975 RMK AO2
SLP068 60000 T10221061 11006 21022 58013 $





000
SAUS41 KOKX 090455
MTRMTP
METAR KMTP 090454Z AUTO 01009KT M04/M07 A2978 RMK AO1 SLP083
T10391072 400441039





000
SAUS41 KOKX 090452
MTRNYC
METAR KNYC 090451Z AUTO VRB06KT 8SM OVC011 M02/M06 A2977 RMK AO2
SNB01E35 SLP075 P0000 T10221056 400391022 $





000
SAUS41 KOKX 090452
MTRNYC
METAR KNYC 090451Z AUTO VRB06KT 8SM OVC011 M02/M06 A2977 RMK AO2
SNB01E35 SLP075 P0000 T10221056 400391022 $





000
SAUS41 KOKX 090435
MTRNYC
SPECI KNYC 090434Z AUTO 08007KT 4SM -SN OVC012 M02/M06 A2978 RMK AO2
SNB01 P0000 T10221056 $





000
SAUS41 KOKX 090425
MTRNYC
SPECI KNYC 090424Z AUTO 05009KT 2 1/2SM -SN OVC012 M02/M06 A2978 RMK
AO2 SNB01 P0000 T10221056 $





000
SAUS41 KOKX 090413
MTRNYC
SPECI KNYC 090412Z AUTO VRB05KT 1 3/4SM -SN OVC012 M02/M05 A2978 RMK
AO2 SNB01 P0000 T10221050 $





000
SAUS41 KOKX 090413
MTRNYC
SPECI KNYC 090412Z AUTO VRB05KT 1 3/4SM -SN OVC012 M02/M05 A2978 RMK
AO2 SNB01 P0000 T10221050 $





000
SAUS41 KOKX 090355
MTRMTP
METAR KMTP 090354Z AUTO 01008G15KT M04/M07 A2979 RMK AO1 SLP087
T10391072





000
SAUS41 KOKX 090352
MTRNYC
METAR KNYC 090351Z AUTO 03007KT 10SM OVC012 M02/M06 A2979 RMK AO2
SLP079 T10171056 $





000
SAUS41 KOKX 090352
MTRNYC
METAR KNYC 090351Z AUTO 03007KT 10SM OVC012 M02/M06 A2979 RMK AO2
SLP079 T10171056 $





000
SAUS41 KOKX 090347
MTRNYC
SPECI KNYC 090346Z AUTO 05006KT 10SM BKN012 OVC017 M02/M06 A2979 RMK
AO2 $





000
SAUS41 KOKX 090255
MTRMTP
METAR KMTP 090254Z AUTO 01010G17KT M04/M08 A2979 RMK AO1 SLP087
T10391078 50005





000
SAUS41 KOKX 090253
MTRNYC
METAR KNYC 090251Z AUTO 06005KT 9SM OVC015 M02/M06 A2982 RMK AO2
SLP090 T10221056 51006 $





000
SAUS41 KOKX 090155
MTRMTP
METAR KMTP 090154Z AUTO 01010G16KT M04/M07 A2979 RMK AO1 SLP088
T10391072





000
SAUS41 KOKX 090155
MTRMTP
METAR KMTP 090154Z AUTO 01010G16KT M04/M07 A2979 RMK AO1 SLP088
T10391072





000
SAUS41 KOKX 090152
MTRNYC
METAR KNYC 090151Z AUTO VRB05KT 10SM OVC022 M02/M06 A2982 RMK AO2
SLP090 T10171061 $





000
SAUS41 KOKX 090055
MTRMTP
METAR KMTP 090054Z AUTO 01012G19KT M04/M07 A2977 RMK AO1 SLP082
T10391067





000
SAUS41 KOKX 090055
MTRMTP
METAR KMTP 090054Z AUTO 01012G19KT M04/M07 A2977 RMK AO1 SLP082
T10391067





000
SAUS41 KOKX 090052
MTRNYC
METAR KNYC 090051Z AUTO 02005KT 10SM BKN019 OVC024 M01/M06 A2981 RMK
AO2 SLP086 T10111056 $





000
SAUS41 KOKX 082355
MTRMTP
METAR KMTP 082354Z AUTO 36013G19KT M04/M06 A2977 RMK AO1 SLP081
60008 T10391061 11033 21039 51020





000
SAUS41 KOKX 082355
MTRMTP
METAR KMTP 082354Z AUTO 36013G19KT M04/M06 A2977 RMK AO1 SLP081
60008 T10391061 11033 21039 51020





000
SAUS41 KOKX 082352
MTRNYC
METAR KNYC 082351Z AUTO 04008G14KT 010V070 8SM OVC024 M01/M06 A2980
RMK AO2 SLP083 T10061056 10011 21006 51018 $





000
SAUS41 KOKX 082352
MTRNYC
METAR KNYC 082351Z AUTO 04008G14KT 010V070 8SM OVC024 M01/M06 A2980
RMK AO2 SLP083 T10061056 10011 21006 51018 $





000
SAUS41 KOKX 082255
MTRMTP
METAR KMTP 082254Z AUTO 35011G18KT M04/M06 A2976 RMK AO1 SLP076
P0002 T10391056





000
SAUS41 KOKX 082255
MTRMTP
METAR KMTP 082254Z AUTO 35011G18KT M04/M06 A2976 RMK AO1 SLP076
P0002 T10391056





000
SAUS41 KOKX 082253
MTRNYC
METAR KNYC 082251Z AUTO VRB06KT 9SM BKN027 BKN049 OVC060 00/M06
A2978 RMK AO2 SLP076 T00001061 $





000
SAUS41 KOKX 082253
MTRNYC
METAR KNYC 082251Z AUTO VRB06KT 9SM BKN027 BKN049 OVC060 00/M06
A2978 RMK AO2 SLP076 T00001061 $





000
SAUS41 KOKX 082234
MTRNYC
SPECI KNYC 082233Z AUTO 04007KT 350V070 10SM BKN027 BKN049 OVC055
00/M06 A2977 RMK AO2 T00001061 $





000
SAUS41 KOKX 082155
MTRMTP
METAR KMTP 082154Z AUTO 34013G20KT M04/M06 A2973 RMK AO1 SLP067
P0001 T10391056





000
SAUS41 KOKX 082152
MTRNYC
METAR KNYC 082151Z AUTO VRB06KT 10SM FEW028 OVC055 00/M06 A2977 RMK
AO2 SLP073 T00001061 $





000
SAUS41 KOKX 082055
MTRMTP
METAR KMTP 082054Z AUTO 34012G21KT M04/M06 A2971 RMK AO1 SLP061
60005 T10391056 53014





000
SAUS41 KOKX 082053
MTRNYC
METAR KNYC 082051Z AUTO 04008G15KT 10SM BKN055 OVC075 00/M06 A2974
RMK AO2 SLP065 T00001056 56008 $





000
SAUS41 KOKX 082053
MTRNYC
METAR KNYC 082051Z AUTO 04008G15KT 10SM BKN055 OVC075 00/M06 A2974
RMK AO2 SLP065 T00001056 56008 $





000
SAUS41 KOKX 081955
MTRMTP
METAR KMTP 081954Z AUTO 35014G27KT M04/M06 A2967 RMK AO1 PK WND
33027/1953 SLP048 P0002 T10391056





000
SAUS41 KOKX 081952
MTRNYC
METAR KNYC 081951Z AUTO 03011G19KT 360V060 10SM OVC060 01/M06 A2974
RMK AO2 SLP065 T00061056 $





000
SAUS41 KOKX 081857
MTRMTP
METAR KMTP 081854Z AUTO 36014G24KT M03/M05 A2967 RMK AO1 PK WND
01028/1809 SLP045 P0003 T10331050





000
SAUS41 KOKX 081857
MTRMTP
METAR KMTP 081854Z AUTO 36014G24KT M03/M05 A2967 RMK AO1 PK WND
01028/1809 SLP045 P0003 T10331050





000
SAUS41 KOKX 081852
MTRNYC
METAR KNYC 081851Z AUTO 05010G15KT 10SM OVC050 01/M05 A2975 RMK AO2
SLP067 T00061050 $





000
SAUS41 KOKX 081755
MTRMTP
METAR KMTP 081754Z AUTO 01017G29KT M04/M05 A2967 RMK AO1 PK WND
36034/1741 SLP047 P0002 60018 T10391050 10000 21039 56029





000
SAUS41 KOKX 081752
MTRNYC
METAR KNYC 081751Z AUTO 05009G20KT 020V080 10SM OVC050 00/M04 A2977
RMK AO2 SNE21 SLP073 P0001 60005 T00001044 10033 21006 58020 $





000
SAUS41 KOKX 081729
MTRNYC
SPECI KNYC 081728Z AUTO 03009KT 6SM HZ FEW012 BKN042 OVC060 00/M04
A2978 RMK AO2 SNE21 P0001 T00001039 $





000
SAUS41 KOKX 081723
MTRNYC
SPECI KNYC 081721Z AUTO 04007G19KT 010V070 3SM HZ SCT012 BKN029
OVC036 M01/M04 A2978 RMK AO2 SNE21 P0001 T10061044 $





000
SAUS41 KOKX 081718
MTRNYC
SPECI KNYC 081717Z AUTO 03010G19KT 2SM -SN FEW010 BKN018 OVC027
M01/M04 A2979 RMK AO2 P0001 T10061044 $





000
SAUS41 KOKX 081707
MTRNYC
SPECI KNYC 081706Z AUTO 01008G16KT 340V070 1SM -SN BKN010 OVC019
M01/M04 A2980 RMK AO2 P0001 T10061039 $





000
SAUS41 KOKX 081707
MTRNYC
SPECI KNYC 081706Z AUTO 01008G16KT 340V070 1SM -SN BKN010 OVC019
M01/M04 A2980 RMK AO2 P0001 T10061039 $





000
SAUS41 KOKX 081655
MTRMTP
METAR KMTP 081654Z AUTO 01018G28KT M03/M05 A2970 RMK AO1 PK WND
01029/1611 SLP056 T10331050





000
SAUS41 KOKX 081655
MTRMTP
METAR KMTP 081654Z AUTO 01018G28KT M03/M05 A2970 RMK AO1 PK WND
01029/1611 SLP056 T10331050





000
SAUS41 KOKX 081652
MTRNYC
METAR KNYC 081651Z AUTO 01012G17KT 1/2SM SN BKN009 OVC015 00/M03
A2980 RMK AO2 SLP084 P0003 T00001028 $





000
SAUS41 KOKX 081644
MTRNYC
SPECI KNYC 081642Z AUTO 04007KT 360V070 3/4SM -SN SCT009 OVC015
00/M03 A2980 RMK AO2 P0003 T00001028 $





000
SAUS41 KOKX 081555
MTRMTP
METAR KMTP 081554Z AUTO 01016G26KT M03/M04 A2972 RMK AO1 PK WND
02026/1534 SLP064 P0002 T10281039





000
SAUS41 KOKX 081555
MTRMTP
METAR KMTP 081554Z AUTO 01016G26KT M03/M04 A2972 RMK AO1 PK WND
02026/1534 SLP064 P0002 T10281039





000
SAUS41 KOKX 081553
MTRNYC
METAR KNYC 081551Z AUTO 03011G16KT 010V070 3/4SM -SN VV016 00/M03
A2982 RMK AO2 SLP092 P0001 T00001033 $





000
SAUS41 KOKX 081548
MTRNYC
SPECI KNYC 081546Z AUTO 02008KT 350V050 3/4SM -SN SCT013 OVC020
00/M03 A2983 RMK AO2 P0001 $





000
SAUS41 KOKX 081538
MTRNYC
SPECI KNYC 081536Z AUTO VRB05KT 3/4SM -SN BKN013 OVC024 00/M03 A2984
RMK AO2 P0001 T00001033 $





000
SAUS41 KOKX 081520
MTRNYC
SPECI KNYC 081518Z AUTO VRB04KT 1 1/4SM -SN FEW010 BKN028 OVC038
00/M03 A2984 RMK AO2 P0001 T00001033 $





000
SAUS41 KOKX 081501
MTRNYC
SPECI KNYC 081500Z AUTO 06014G21KT 1/2SM SN SCT012 BKN020 OVC030
00/M03 A2984 RMK AO2 P0001 T00001028 $





000
SAUS41 KOKX 081501
MTRNYC
SPECI KNYC 081500Z AUTO 06014G21KT 1/2SM SN SCT012 BKN020 OVC030
00/M03 A2984 RMK AO2 P0001 T00001028 $





000
SAUS41 KOKX 081455
MTRMTP
METAR KMTP 081454Z AUTO 01013G21KT M01/M02 A2976 RMK AO1 PK WND
01026/1415 SLP076 P0004 60014 T10111017 53004





000
SAUS41 KOKX 081455
MTRMTP
METAR KMTP 081454Z AUTO 01013G21KT M01/M02 A2976 RMK AO1 PK WND
01026/1415 SLP076 P0004 60014 T10111017 53004





000
SAUS41 KOKX 081452
MTRNYC
METAR KNYC 081451Z AUTO 06008G17KT 1 1/4SM -SN FEW023 BKN029 OVC042
01/M03 A2983 RMK AO2 SNB44 SLP094 P0000 60000 T00111028 53015 $





000
SAUS41 KOKX 081450
MTRNYC
SPECI KNYC 081449Z AUTO 08011G17KT 1 1/2SM -SN FEW023 OVC031 01/M03
A2983 RMK AO2 SNB44 P0000 $





000
SAUS41 KOKX 081447
MTRNYC
SPECI KNYC 081446Z AUTO 09010G15KT 050V120 2 1/2SM -SN FEW023 BKN029
OVC038 02/M04 A2982 RMK AO2 SNB44 P0000 $





000
SAUS41 KOKX 081355
MTRMTP
METAR KMTP 081354Z AUTO 02016G27KT M01/M01 A2975 RMK AO1 PK WND
01029/1328 SLP073 P0005 T10061011





000
SAUS41 KOKX 081353
MTRNYC
METAR KNYC 081351Z AUTO 05011G22KT 020V100 10SM OVC034 03/M05 A2979
RMK AO2 SLP079 T00281050 $





000
SAUS41 KOKX 081333
MTRNYC
SPECI KNYC 081331Z AUTO 05008G19KT 020V080 10SM OVC031 03/M04 A2979
RMK AO2 T00281044 $





000
SAUS41 KOKX 081256
MTRMTP
METAR KMTP 081254Z AUTO 02018G32KT 00/M01 A2974 RMK AO1 PK WND
01032/1248 SLP069 P0005 T00001006





000
SAUS41 KOKX 081256
MTRMTP
METAR KMTP 081254Z AUTO 02018G32KT 00/M01 A2974 RMK AO1 PK WND
01032/1248 SLP069 P0005 T00001006





000
SAUS41 KOKX 081253
MTRNYC
METAR KNYC 081251Z AUTO 06012KT 10SM OVC028 03/M04 A2980 RMK AO2
SLP084 T00331039 $





000
SAUS41 KOKX 081253
MTRNYC
METAR KNYC 081251Z AUTO 06012KT 10SM OVC028 03/M04 A2980 RMK AO2
SLP084 T00331039 $





000
SAUS41 KOKX 081155
MTRMTP
METAR KMTP 081154Z AUTO 04018G31KT 00/M01 A2975 RMK AO1 PK WND
04034/1142 SLP073 P0004 60007 70007 T00001006 10044 20000 51009





000
SAUS41 KOKX 081155
MTRMTP
METAR KMTP 081154Z AUTO 04018G31KT 00/M01 A2975 RMK AO1 PK WND
04034/1142 SLP073 P0004 60007 70007 T00001006 10044 20000 51009





000
SAUS41 KOKX 081153
MTRNYC
METAR KNYC 081151Z AUTO 04011G18KT 360V080 10SM OVC027 03/M03 A2979
RMK AO2 SLP079 T00331033 10039 20028 53008 $





000
SAUS41 KOKX 081153
MTRNYC
METAR KNYC 081151Z AUTO 04011G18KT 360V080 10SM OVC027 03/M03 A2979
RMK AO2 SLP079 T00331033 10039 20028 53008 $





000
SAUS41 KOKX 081134
MTRNYC
SPECI KNYC 081133Z AUTO 07009G16KT 040V100 10SM OVC028 03/M03 A2978
RMK AO2 T00331033 $





000
SAUS41 KOKX 081134
MTRNYC
SPECI KNYC 081133Z AUTO 07009G16KT 040V100 10SM OVC028 03/M03 A2978
RMK AO2 T00331033 $





000
SAUS41 KOKX 081104
MTRNYC
SPECI KNYC 081103Z AUTO 06008G18KT 10SM OVC030 03/M04 A2978 RMK AO2
T00331039 $





000
SAUS41 KOKX 081104
MTRNYC
SPECI KNYC 081103Z AUTO 06008G18KT 10SM OVC030 03/M04 A2978 RMK AO2
T00331039 $





000
SAUS41 KOKX 081055
MTRMTP
METAR KMTP 081054Z AUTO 04015G27KT 01/M01 A2973 RMK AO1 PK WND
06032/1041 SLP068 P0003 T00111006





000
SAUS41 KOKX 081055
MTRMTP
METAR KMTP 081054Z AUTO 04015G27KT 01/M01 A2973 RMK AO1 PK WND
06032/1041 SLP068 P0003 T00111006





000
SAUS41 KOKX 081053
MTRNYC
METAR KNYC 081051Z AUTO 06010G17KT 10SM OVC029 03/M03 A2978 RMK AO2
SLP075 T00331033 $





000
SAUS41 KOKX 080955
MTRMTP
METAR KMTP 080954Z AUTO 05020G29KT 02/M01 A2973 RMK AO1 PK WND
05035/0856 SLP068 T00171006





000
SAUS41 KOKX 080953
MTRNYC
METAR KNYC 080951Z AUTO 06014G22KT 10SM OVC028 03/M03 A2976 RMK AO2
PK WND 05027/0929 SLP070 T00331033 $





000
SAUS41 KOKX 080925
MTRNYC
SPECI KNYC 080924Z AUTO 06013G23KT 10SM BKN029 03/M03 A2977 RMK AO2
T00331033 $





000
SAUS41 KOKX 080855
MTRMTP
METAR KMTP 080854Z AUTO 05019G34KT 04/M01 A2972 RMK AO1 PK WND
05034/0854 SLP064 T00391011 56042





000
SAUS41 KOKX 080855
MTRMTP
METAR KMTP 080854Z AUTO 05019G34KT 04/M01 A2972 RMK AO1 PK WND
05034/0854 SLP064 T00391011 56042





000
SAUS41 KOKX 080852
MTRNYC
METAR KNYC 080851Z AUTO 06014G22KT 10SM FEW029 03/M03 A2976 RMK AO2
PK WND 04027/0815 SLP071 T00331033 56038 $





000
SAUS41 KOKX 080755
MTRMTP
METAR KMTP 080754Z AUTO 04015G27KT 04/M01 A2975 RMK AO1 PK WND
04028/0740 SLP075 T00441006





000
SAUS41 KOKX 080753
MTRNYC
METAR KNYC 080751Z AUTO 04011G20KT 360V080 10SM CLR 03/M04 A2979 RMK
AO2 PRESFR SLP080 T00331044 $





000
SAUS41 KOKX 080655
MTRMTP
METAR KMTP 080654Z AUTO 04015G25KT 04/01 A2981 RMK AO1 PK WND
06026/0631 SLP093 T00440006





000
SAUS41 KOKX 080652
MTRNYC
METAR KNYC 080651Z AUTO 05012KT 10SM CLR 03/M07 A2984 RMK AO2 SLP097
T00331067 $





000
SAUS41 KOKX 080555
MTRMTP
METAR KMTP 080554Z AUTO 04013G24KT 04/01 A2984 RMK AO1 SLP105
T00440006 10050 20044 58045





000
SAUS41 KOKX 080555
MTRMTP
METAR KMTP 080554Z AUTO 04013G24KT 04/01 A2984 RMK AO1 SLP105
T00440006 10050 20044 58045





000
SAUS41 KOKX 080553
MTRNYC
METAR KNYC 080551Z AUTO 05013G18KT 10SM CLR 04/M06 A2988 RMK AO2
SLP109 T00391061 10050 20039 58034 $





000
SAUS41 KOKX 080553
MTRNYC
METAR KNYC 080551Z AUTO 05013G18KT 10SM CLR 04/M06 A2988 RMK AO2
SLP109 T00391061 10050 20039 58034 $





000
SAUS41 KOKX 080455
MTRMTP
METAR KMTP 080454Z AUTO 04012G21KT 04/01 A2991 RMK AO1 PRESFR SLP128
T00440006 400610000





000
SAUS41 KOKX 080455
MTRMTP
METAR KMTP 080454Z AUTO 04012G21KT 04/01 A2991 RMK AO1 PRESFR SLP128
T00440006 400610000





000
SAUS41 KOKX 080453
MTRNYC
METAR KNYC 080451Z AUTO 08013G19KT 10SM CLR 04/M04 A2992 RMK AO2
SLP125 T00391039 400830006 $





000
SAUS41 KOKX 080355
MTRMTP
METAR KMTP 080354Z AUTO 05013G22KT 04/01 A2995 RMK AO1 SLP142
T00440011





000
SAUS41 KOKX 080353
MTRNYC
METAR KNYC 080351Z AUTO 06012G18KT 10SM CLR 04/M03 A2994 RMK AO2
SLP132 T00441028 $





000
SAUS41 KOKX 080353
MTRNYC
METAR KNYC 080351Z AUTO 06012G18KT 10SM CLR 04/M03 A2994 RMK AO2
SLP132 T00441028 $





000
SAUS41 KOKX 080255
MTRMTP
METAR KMTP 080254Z AUTO 06012G20KT 04/00 A2998 RMK AO1 SLP150
T00440000 58028





000
SAUS41 KOKX 080253
MTRNYC
METAR KNYC 080251Z AUTO 05004KT 10SM CLR 04/M03 A2998 RMK AO2 SLP142
T00391028 56021 $





000
SAUS41 KOKX 080155
MTRMTP
METAR KMTP 080154Z AUTO 06008G19KT 04/M01 A3001 RMK AO1 SLP160
T00441011





000
SAUS41 KOKX 080155
MTRMTP
METAR KMTP 080154Z AUTO 06008G19KT 04/M01 A3001 RMK AO1 SLP160
T00441011





000
SAUS41 KOKX 080152
MTRNYC
METAR KNYC 080151Z AUTO 07008KT 040V110 10SM CLR 04/M03 A2999 RMK
AO2 SLP148 T00391028 $





000
SAUS41 KOKX 080152
MTRNYC
METAR KNYC 080151Z AUTO 07008KT 040V110 10SM CLR 04/M03 A2999 RMK
AO2 SLP148 T00391028 $





000
SAUS41 KOKX 080056
MTRMTP
METAR KMTP 080054Z AUTO 06006G16KT 05/M01 A3005 RMK AO1 SLP176
T00501006





000
SAUS41 KOKX 080056
MTRMTP
METAR KMTP 080054Z AUTO 06006G16KT 05/M01 A3005 RMK AO1 SLP176
T00501006





000
SAUS41 KOKX 080053
MTRNYC
METAR KNYC 080051Z AUTO 07008KT 020V090 10SM CLR 04/M04 A3001 RMK
AO2 SLP156 T00441039 $





000
SAUS41 KOKX 080053
MTRNYC
METAR KNYC 080051Z AUTO 07008KT 020V090 10SM CLR 04/M04 A3001 RMK
AO2 SLP156 T00441039 $





000
SAUS41 KOKX 072355
MTRMTP
METAR KMTP 072354Z AUTO 06008KT 05/01 A3006 RMK AO1 SLP178 T00500006
10061 20044 58007





000
SAUS41 KOKX 072355
MTRMTP
METAR KMTP 072354Z AUTO 06008KT 05/01 A3006 RMK AO1 SLP178 T00500006
10061 20044 58007





000
SAUS41 KOKX 072353
MTRNYC
METAR KNYC 072351Z AUTO 08007KT 10SM CLR 05/M03 A3004 RMK AO2 SLP163
T00501028 10083 20050 56008 $





000
SAUS41 KOKX 072255
MTRMTP
METAR KMTP 072254Z AUTO 06005KT 04/00 A3006 RMK AO1 SLP180 T00440000





000
SAUS41 KOKX 072255
MTRMTP
METAR KMTP 072254Z AUTO 06005KT 04/00 A3006 RMK AO1 SLP180 T00440000





000
SAUS41 KOKX 072253
MTRNYC
METAR KNYC 072251Z AUTO 08007KT 10SM CLR 06/M05 A3004 RMK AO2 SLP163
T00561050 $





000
SAUS41 KOKX 072253
MTRNYC
METAR KNYC 072251Z AUTO 08007KT 10SM CLR 06/M05 A3004 RMK AO2 SLP163
T00561050 $





000
SAUS41 KOKX 072155
MTRMTP
METAR KMTP 072154Z AUTO 04003KT 04/00 A3008 RMK AO1 SLP184 T00440000





000
SAUS41 KOKX 072153
MTRNYC
METAR KNYC 072151Z AUTO 07005KT 10SM CLR 06/M06 A3005 RMK AO2 SLP169
T00611061 $





000
SAUS41 KOKX 072055
MTRMTP
METAR KMTP 072054Z AUTO 03004KT 05/M01 A3008 RMK AO1 SLP185
T00501011 56031





000
SAUS41 KOKX 072055
MTRMTP
METAR KMTP 072054Z AUTO 03004KT 05/M01 A3008 RMK AO1 SLP185
T00501011 56031





000
SAUS41 KOKX 072052
MTRNYC
METAR KNYC 072051Z AUTO 09006KT 10SM CLR 07/M07 A3006 RMK AO2 SLP172
T00721067 56025 $





000
SAUS41 KOKX 071955
MTRMTP
METAR KMTP 071954Z AUTO 05005KT 06/M01 A3011 RMK AO1 SLP195
T00561011





000
SAUS41 KOKX 071953
MTRNYC
METAR KNYC 071951Z AUTO VRB05KT 10SM CLR 08/M06 A3008 RMK AO2 SLP177
T00781061 $





000
SAUS41 KOKX 071855
MTRMTP
METAR KMTP 071854Z AUTO 00000KT 06/M02 A3014 RMK AO1 SLP205
T00561017





000
SAUS41 KOKX 071855
MTRMTP
METAR KMTP 071854Z AUTO 00000KT 06/M02 A3014 RMK AO1 SLP205
T00561017





000
SAUS41 KOKX 071852
MTRNYC
METAR KNYC 071851Z AUTO 06006KT 10SM CLR 08/M06 A3010 RMK AO2 SLP186
T00831061 $





000
SAUS41 KOKX 071852
MTRNYC
METAR KNYC 071851Z AUTO 06006KT 10SM CLR 08/M06 A3010 RMK AO2 SLP186
T00831061 $





000
SAUS41 KOKX 071755
MTRMTP
METAR KMTP 071754Z AUTO 14005KT 06/M01 A3017 RMK AO1 SLP216
T00561011 10056 20000 56004





000
SAUS41 KOKX 071755
MTRMTP
METAR KMTP 071754Z AUTO 14005KT 06/M01 A3017 RMK AO1 SLP216
T00561011 10056 20000 56004





000
SAUS41 KOKX 071752
MTRNYC
METAR KNYC 071751Z AUTO VRB03KT 10SM CLR 07/M07 A3014 RMK AO2 SLP197
T00721072 10078 20011 58016 $





000
SAUS41 KOKX 071752
MTRNYC
METAR KNYC 071751Z AUTO VRB03KT 10SM CLR 07/M07 A3014 RMK AO2 SLP197
T00721072 10078 20011 58016 $





000
SAUS41 KOKX 071655
MTRMTP
METAR KMTP 071654Z AUTO 23003KT 04/M01 A3017 RMK AO1 SLP217
T00441006





000
SAUS41 KOKX 071655
MTRMTP
METAR KMTP 071654Z AUTO 23003KT 04/M01 A3017 RMK AO1 SLP217
T00441006





000
SAUS41 KOKX 071652
MTRNYC
METAR KNYC 071651Z AUTO 00000KT 10SM CLR 06/M07 A3015 RMK AO2 SLP203
T00561067 $





000
SAUS41 KOKX 071555
MTRMTP
METAR KMTP 071554Z AUTO 31005KT 04/M01 A3016 RMK AO1 SLP212
T00441011





000
SAUS41 KOKX 071552
MTRNYC
METAR KNYC 071551Z AUTO VRB03KT 10SM CLR 05/M07 A3017 RMK AO2 SLP210
T00501067 $





000
SAUS41 KOKX 071455
MTRMTP
METAR KMTP 071454Z AUTO 28003KT 04/M01 A3018 RMK AO1 SLP221
T00391011 56012





000
SAUS41 KOKX 071452
MTRNYC
METAR KNYC 071451Z AUTO 00000KT 10SM CLR 04/M07 A3018 RMK AO2 SLP213
T00391067 58009 $





000
SAUS41 KOKX 071355
MTRMTP
METAR KMTP 071354Z AUTO 28006KT 03/M02 A3019 RMK AO1 SLP224
T00331017





000
SAUS41 KOKX 071352
MTRNYC
METAR KNYC 071351Z AUTO 00000KT 10SM CLR 03/M07 A3020 RMK AO2 SLP219
T00281067 $





000
SAUS41 KOKX 071255
MTRMTP
METAR KMTP 071254Z AUTO 19003KT 02/M03 A3020 RMK AO1 SLP226
T00171028





000
SAUS41 KOKX 071253
MTRNYC
METAR KNYC 071251Z AUTO 00000KT 10SM CLR 02/M06 A3021 RMK AO2 SLP221
T00171061 $





000
SAUS41 KOKX 071155
MTRMTP
METAR KMTP 071154Z AUTO 00000KT 01/M03 A3022 RMK AO1 SLP233
T00061028 10028 20006 53001





000
SAUS41 KOKX 071153
MTRNYC
METAR KNYC 071151Z AUTO 28004KT 10SM CLR 02/M07 A3021 RMK AO2 SLP222
T00171067 10028 20006 55005 $





000
SAUS41 KOKX 071055
MTRMTP
METAR KMTP 071054Z AUTO 25003KT 01/M03 A3020 RMK AO1 SLP225
T00111033





000
SAUS41 KOKX 071052
MTRNYC
METAR KNYC 071051Z AUTO 00000KT 10SM CLR 01/M07 A3020 RMK AO2 SLP219
T00111067 $





000
SAUS41 KOKX 070955
MTRMTP
METAR KMTP 070954Z AUTO 24004KT 02/M03 A3020 RMK AO1 SLP227
T00171028





000
SAUS41 KOKX 070953
MTRNYC
METAR KNYC 070951Z AUTO 27003KT 10SM CLR 02/M06 A3021 RMK AO2 SLP221
T00171061 $





000
SAUS41 KOKX 070855
MTRMTP
METAR KMTP 070854Z AUTO 23004KT 02/M03 A3022 RMK AO1 SLP232
T00171028 58013





000
SAUS41 KOKX 070855
MTRMTP
METAR KMTP 070854Z AUTO 23004KT 02/M03 A3022 RMK AO1 SLP232
T00171028 58013





000
SAUS41 KOKX 070852
MTRNYC
METAR KNYC 070851Z AUTO 26006KT 10SM CLR 02/M06 A3023 RMK AO2 SLP227
T00171061 58009 $





000
SAUS41 KOKX 070755
MTRMTP
METAR KMTP 070754Z AUTO 24006KT 02/M03 A3024 RMK AO1 SLP240
T00221033





000
SAUS41 KOKX 070752
MTRNYC
METAR KNYC 070751Z AUTO 10SM CLR 02/M06 A3025 RMK AO2 SLP235
T00221061 $





000
SAUS41 KOKX 070655
MTRMTP
METAR KMTP 070654Z AUTO 23004KT 02/M02 A3024 RMK AO1 SLP239
T00221022





000
SAUS41 KOKX 070655
MTRMTP
METAR KMTP 070654Z AUTO 23004KT 02/M02 A3024 RMK AO1 SLP239
T00221022





000
SAUS41 KOKX 070653
MTRNYC
METAR KNYC 070651Z AUTO VRB04KT 10SM CLR 02/M06 A3025 RMK AO2 SLP234
T00221056 $





000
SAUS41 KOKX 070653
MTRNYC
METAR KNYC 070651Z AUTO VRB04KT 10SM CLR 02/M06 A3025 RMK AO2 SLP234
T00221056 $





000
SAUS41 KOKX 070555
MTRMTP
METAR KMTP 070554Z AUTO 23005KT 02/M02 A3025 RMK AO1 SLP245
T00221017 10028 20022 58017





000
SAUS41 KOKX 070555
MTRMTP
METAR KMTP 070554Z AUTO 23005KT 02/M02 A3025 RMK AO1 SLP245
T00221017 10028 20022 58017





000
SAUS41 KOKX 070553
MTRNYC
METAR KNYC 070551Z AUTO VRB03KT 10SM CLR 02/M06 A3025 RMK AO2 SLP237
T00221061 10039 20022 58016 $





000
SAUS41 KOKX 070553
MTRNYC
METAR KNYC 070551Z AUTO VRB03KT 10SM CLR 02/M06 A3025 RMK AO2 SLP237
T00221061 10039 20022 58016 $





000
SAUS41 KOKX 070455
MTRMTP
METAR KMTP 070454Z AUTO 23005KT 03/M01 A3027 RMK AO1 SLP251
T00281011 400331006





000
SAUS41 KOKX 070455
MTRMTP
METAR KMTP 070454Z AUTO 23005KT 03/M01 A3027 RMK AO1 SLP251
T00281011 400331006





000
SAUS41 KOKX 070452
MTRNYC
METAR KNYC 070451Z AUTO 24009G17KT 10SM CLR 03/M06 A3028 RMK AO2
SLP245 T00281061 400441011 $





000
SAUS41 KOKX 070452
MTRNYC
METAR KNYC 070451Z AUTO 24009G17KT 10SM CLR 03/M06 A3028 RMK AO2
SLP245 T00281061 400441011 $





000
SAUS41 KOKX 070355
MTRMTP
METAR KMTP 070354Z AUTO 24007KT 03/M01 A3029 RMK AO1 SLP256
T00281011





000
SAUS41 KOKX 070352
MTRNYC
METAR KNYC 070351Z AUTO VRB06KT 10SM CLR 03/M06 A3030 RMK AO2 SLP252
T00281061 $





000
SAUS41 KOKX 070352
MTRNYC
METAR KNYC 070351Z AUTO VRB06KT 10SM CLR 03/M06 A3030 RMK AO2 SLP252
T00281061 $





000
SAUS41 KOKX 070255
MTRMTP
METAR KMTP 070254Z AUTO 23003KT 02/M02 A3030 RMK AO1 SLP261
T00221017 56003





000
SAUS41 KOKX 070255
MTRMTP
METAR KMTP 070254Z AUTO 23003KT 02/M02 A3030 RMK AO1 SLP261
T00221017 56003





000
SAUS41 KOKX 070252
MTRNYC
METAR KNYC 070251Z AUTO VRB06G16KT 10SM CLR 03/M07 A3030 RMK AO2
SLP254 T00331067 58002 $





000
SAUS41 KOKX 070252
MTRNYC
METAR KNYC 070251Z AUTO VRB06G16KT 10SM CLR 03/M07 A3030 RMK AO2
SLP254 T00331067 58002 $





000
SAUS41 KOKX 070155
MTRMTP
METAR KMTP 070154Z AUTO 23004KT 02/M02 A3030 RMK AO1 SLP261
T00221017





000
SAUS41 KOKX 070152
MTRNYC
METAR KNYC 070151Z AUTO VRB03KT 10SM CLR 03/M07 A3030 RMK AO2 SLP255
T00331067 $





000
SAUS41 KOKX 070058 COR
MTRMTP
METAR KMTP 070054Z AUTO 23004KT 02/M02 A3031 RMK AO1 SLP263
T00221022





000
SAUS41 KOKX 070058 COR
MTRMTP
METAR KMTP 070054Z AUTO 23004KT 02/M02 A3031 RMK AO1 SLP263
T00221022





000
SAUS41 KOKX 070056 COR
MTRMTP
METAR KMTP 070054Z AUTO 23004KT 02/M02 A3031 RMK AO1 SLP263
T00221022





000
SAUS41 KOKX 070056 COR
MTRMTP
METAR KMTP 070054Z AUTO 23004KT 02/M02 A3031 RMK AO1 SLP263
T00221022





000
SAUS41 KOKX 070055
MTRMTP
METAR KMTP 070054Z AUTO 23004KT 02/M02 A3031 RMK AO1 SLP263
T00221022





000
SAUS41 KOKX 070055
MTRMTP
METAR KMTP 070054Z AUTO 23004KT 02/M02 A3031 RMK AO1 SLP263
T00221022





000
SAUS41 KOKX 070053
MTRNYC
METAR KNYC 070051Z AUTO 23007KT 180V290 10SM CLR 04/M07 A3031 RMK
AO2 SLP256 T00391072 $





000
SAUS41 KOKX 070053
MTRNYC
METAR KNYC 070051Z AUTO 23007KT 180V290 10SM CLR 04/M07 A3031 RMK
AO2 SLP256 T00391072 $





000
SAUS41 KOKX 062355
MTRMTP
METAR KMTP 062354Z AUTO 23004KT 02/M02 A3031 RMK AO1 SLP264
T00221022 10033 20022 56004





000
SAUS41 KOKX 062355
MTRMTP
METAR KMTP 062354Z AUTO 23004KT 02/M02 A3031 RMK AO1 SLP264
T00221022 10033 20022 56004





000
SAUS41 KOKX 062353
MTRNYC
METAR KNYC 062351Z AUTO 22006KT 10SM CLR 04/M08 A3031 RMK AO2 SLP256
T00391078 10044 20033 55000 $





000
SAUS41 KOKX 062353
MTRNYC
METAR KNYC 062351Z AUTO 22006KT 10SM CLR 04/M08 A3031 RMK AO2 SLP256
T00391078 10044 20033 55000 $





000
SAUS41 KOKX 062255
MTRMTP
METAR KMTP 062254Z AUTO 22005KT 02/M03 A3032 RMK AO1 SLP266
T00221033





000
SAUS41 KOKX 062255
MTRMTP
METAR KMTP 062254Z AUTO 22005KT 02/M03 A3032 RMK AO1 SLP266
T00221033





000
SAUS41 KOKX 062253
MTRNYC
METAR KNYC 062251Z AUTO VRB05G15KT 10SM CLR 04/M08 A3030 RMK AO2
SLP255 T00391083 $





000
SAUS41 KOKX 062155
MTRMTP
METAR KMTP 062154Z AUTO 22007KT 02/M03 A3032 RMK AO1 SLP265
T00221028





000
SAUS41 KOKX 062153
MTRNYC
METAR KNYC 062151Z AUTO 10SM CLR 03/M07 A3030 RMK AO2 SLP255
T00331072 $





000
SAUS41 KOKX 062055
MTRMTP
METAR KMTP 062054Z AUTO 23007KT 03/M03 A3032 RMK AO1 SLP268
T00281028 56018





000
SAUS41 KOKX 062053
MTRNYC
METAR KNYC 062051Z AUTO 26004G15KT 10SM CLR 04/M07 A3031 RMK AO2
SLP256 T00441072 56020 $





000
SAUS41 KOKX 061955
MTRMTP
METAR KMTP 061954Z AUTO 22008G15KT 03/M04 A3034 RMK AO1 SLP273
T00281039





000
SAUS41 KOKX 061952
MTRNYC
METAR KNYC 061951Z AUTO 25008G16KT 10SM CLR 04/M08 A3032 RMK AO2
SLP260 T00391078 $





000
SAUS41 KOKX 061952
MTRNYC
METAR KNYC 061951Z AUTO 25008G16KT 10SM CLR 04/M08 A3032 RMK AO2
SLP260 T00391078 $





000
SAUS41 KOKX 061855
MTRMTP
METAR KMTP 061854Z AUTO 22006KT 03/M04 A3035 RMK AO1 SLP278
T00281039





000
SAUS41 KOKX 061855
MTRMTP
METAR KMTP 061854Z AUTO 22006KT 03/M04 A3035 RMK AO1 SLP278
T00281039





000
SAUS41 KOKX 061852
MTRNYC
METAR KNYC 061851Z AUTO VRB05KT 10SM CLR 03/M08 A3034 RMK AO2 SLP268
T00331078 $





000
SAUS41 KOKX 061852
MTRNYC
METAR KNYC 061851Z AUTO VRB05KT 10SM CLR 03/M08 A3034 RMK AO2 SLP268
T00331078 $





000
SAUS41 KOKX 061755
MTRMTP
METAR KMTP 061754Z AUTO 22006KT 02/M05 A3038 RMK AO1 SLP286
T00221050 10022 21006 58017





000
SAUS41 KOKX 061755
MTRMTP
METAR KMTP 061754Z AUTO 22006KT 02/M05 A3038 RMK AO1 SLP286
T00221050 10022 21006 58017





000
SAUS41 KOKX 061752
MTRNYC
METAR KNYC 061751Z AUTO VRB05KT 10SM CLR 04/M07 A3037 RMK AO2 SLP276
T00391072 10039 21006 58028 $





000
SAUS41 KOKX 061752
MTRNYC
METAR KNYC 061751Z AUTO VRB05KT 10SM CLR 04/M07 A3037 RMK AO2 SLP276
T00391072 10039 21006 58028 $





000
SAUS41 KOKX 061655
MTRMTP
METAR KMTP 061654Z AUTO 26006KT 02/M05 A3040 RMK AO1 SLP294
T00171050





000
SAUS41 KOKX 061655
MTRMTP
METAR KMTP 061654Z AUTO 26006KT 02/M05 A3040 RMK AO1 SLP294
T00171050





000
SAUS41 KOKX 061653
MTRNYC
METAR KNYC 061651Z AUTO VRB05KT 10SM CLR 03/M07 A3041 RMK AO2 SLP289
T00331067 $





000
SAUS41 KOKX 061555
MTRMTP
METAR KMTP 061554Z AUTO 28005KT 02/M05 A3043 RMK AO1 SLP305
T00171050





000
SAUS41 KOKX 061553
MTRNYC
METAR KNYC 061551Z AUTO 00000KT 10SM CLR 03/M07 A3043 RMK AO2 SLP298
T00281067 $





000
SAUS41 KOKX 061455
MTRMTP
METAR KMTP 061454Z AUTO 31006KT 01/M06 A3043 RMK AO1 SLP302
T00111056 50009





000
SAUS41 KOKX 061452
MTRNYC
METAR KNYC 061451Z AUTO 27007KT 10SM CLR 01/M08 A3045 RMK AO2 SLP305
T00111078 51009 $





000
SAUS41 KOKX 061355
MTRMTP
METAR KMTP 061354Z AUTO 32006KT 01/M07 A3043 RMK AO1 SLP303
T00111067





000
SAUS41 KOKX 061352
MTRNYC
METAR KNYC 061351Z AUTO 28006KT 10SM CLR 01/M09 A3044 RMK AO2 SLP302
T00061089 $





    US Dept of Commerce
    National Oceanic and Atmospheric Administration
    National Weather Service
    1325 East West Highway
    Silver Spring, MD 20910
    Page Author: NWS Internet Services Team
Disclaimer
Information Quality
Credits
Glossary
Privacy Policy
Freedom of Information Act (FOIA)
About Us
Career Opportunities